createdAt,value
2018-06-09T00:00:19.007Z,988.16
2018-06-09T00:01:18.761Z,988.18
2018-06-09T00:03:12.445Z,988.19
2018-06-09T00:04:12.351Z,988.19
2018-06-09T00:06:05.203Z,988.20
2018-06-09T00:07:05.074Z,988.18
2018-06-09T00:08:58.020Z,988.19
2018-06-09T00:09:57.931Z,988.18
2018-06-09T00:11:50.903Z,988.10
2018-06-09T00:12:50.783Z,988.11
2018-06-09T00:14:43.759Z,988.09
2018-06-09T00:15:43.631Z,988.09
2018-06-09T00:17:36.492Z,988.07
2018-06-09T00:18:36.417Z,988.07
2018-06-09T00:20:29.234Z,988.05
2018-06-09T00:21:29.141Z,988.02
2018-06-09T00:23:22.022Z,988.05
2018-06-09T00:24:21.877Z,988.04
2018-06-09T00:26:14.738Z,988.01
2018-06-09T00:27:14.628Z,988.04
2018-06-09T00:29:07.517Z,988.04
2018-06-09T00:30:07.439Z,988.05
2018-06-09T00:32:00.221Z,988.04
2018-06-09T00:33:00.137Z,988.05
2018-06-09T00:34:53.020Z,988.02
2018-06-09T00:35:52.882Z,988.08
2018-06-09T00:37:45.726Z,988.12
2018-06-09T00:38:45.633Z,988.09
2018-06-09T00:40:38.499Z,988.13
2018-06-09T00:41:38.391Z,988.13
2018-06-09T00:43:31.226Z,988.10
2018-06-09T00:44:31.126Z,988.15
2018-06-09T00:46:23.994Z,988.14
2018-06-09T00:47:23.890Z,988.15
2018-06-09T00:49:16.742Z,988.11
2018-06-09T00:50:16.670Z,988.11
2018-06-09T00:52:10.958Z,988.15
2018-06-09T00:53:10.831Z,988.15
2018-06-09T00:55:03.657Z,988.17
2018-06-09T00:56:03.573Z,988.14
2018-06-09T00:57:56.422Z,988.13
2018-06-09T00:58:56.315Z,988.11
2018-06-09T01:00:49.197Z,988.14
2018-06-09T01:01:49.067Z,988.15
2018-06-09T01:03:41.938Z,988.07
2018-06-09T01:04:41.810Z,988.12
2018-06-09T01:06:34.544Z,988.15
2018-06-09T01:07:34.485Z,988.11
2018-06-09T01:09:27.337Z,988.10
2018-06-09T01:10:27.212Z,988.13
2018-06-09T01:12:20.083Z,988.15
2018-06-09T01:13:19.956Z,988.11
2018-06-09T01:15:13.327Z,988.16
2018-06-09T01:16:12.708Z,988.19
2018-06-09T01:18:05.562Z,988.19
2018-06-09T01:19:05.463Z,988.20
2018-06-09T01:20:58.333Z,988.19
2018-06-09T01:21:58.202Z,988.15
2018-06-09T01:23:51.059Z,988.16
2018-06-09T01:24:50.952Z,988.15
2018-06-09T01:26:43.838Z,988.12
2018-06-09T01:27:43.702Z,988.15
2018-06-09T01:29:36.455Z,988.16
2018-06-09T01:30:36.355Z,988.16
2018-06-09T01:32:29.213Z,988.13
2018-06-09T01:33:29.103Z,988.12
2018-06-09T01:35:21.976Z,988.11
2018-06-09T01:36:21.854Z,988.11
2018-06-09T01:38:14.720Z,988.05
2018-06-09T01:39:14.594Z,988.05
2018-06-09T01:41:07.457Z,988.03
2018-06-09T01:42:07.352Z,988.00
2018-06-09T01:44:00.223Z,988.00
2018-06-09T01:45:00.116Z,987.97
2018-06-09T01:46:52.955Z,988.01
2018-06-09T01:47:52.839Z,988.02
2018-06-09T01:49:45.732Z,988.03
2018-06-09T01:50:45.593Z,988.02
2018-06-09T01:52:38.441Z,988.03
2018-06-09T01:53:38.357Z,988.05
2018-06-09T01:55:31.254Z,988.02
2018-06-09T01:56:31.113Z,988.02
2018-06-09T01:58:23.932Z,988.01
2018-06-09T01:59:23.846Z,988.03
2018-06-09T02:01:16.750Z,987.99
2018-06-09T02:02:16.600Z,987.99
2018-06-09T02:04:09.436Z,987.95
2018-06-09T02:05:09.338Z,987.99
2018-06-09T02:07:02.205Z,987.96
2018-06-09T02:08:02.108Z,987.93
2018-06-09T02:09:54.937Z,987.95
2018-06-09T02:10:54.855Z,987.94
2018-06-09T02:12:47.750Z,987.95
2018-06-09T02:13:47.599Z,987.96
2018-06-09T02:15:40.358Z,987.95
2018-06-09T02:16:40.248Z,987.89
2018-06-09T02:18:33.101Z,987.84
2018-06-09T02:19:32.992Z,987.78
2018-06-09T02:21:25.841Z,987.78
2018-06-09T02:22:25.754Z,987.77
2018-06-09T02:24:18.625Z,987.78
2018-06-09T02:25:18.488Z,987.77
2018-06-09T02:27:11.343Z,987.80
2018-06-09T02:28:11.247Z,987.78
2018-06-09T02:30:04.084Z,987.88
2018-06-09T02:31:03.989Z,987.91
2018-06-09T02:32:57.237Z,987.83
2018-06-09T02:33:57.145Z,987.88
2018-06-09T02:35:50.018Z,987.88
2018-06-09T02:36:49.899Z,987.87
2018-06-09T02:38:42.735Z,987.81
2018-06-09T02:39:42.640Z,987.79
2018-06-09T02:41:35.534Z,987.75
2018-06-09T02:42:35.399Z,987.75
2018-06-09T02:44:28.264Z,987.72
2018-06-09T02:45:28.145Z,987.72
2018-06-09T02:47:22.458Z,987.77
2018-06-09T02:48:22.338Z,987.78
2018-06-09T02:50:15.165Z,987.78
2018-06-09T02:51:15.067Z,987.75
2018-06-09T02:53:07.944Z,987.81
2018-06-09T02:54:07.855Z,987.76
2018-06-09T02:56:00.580Z,987.78
2018-06-09T02:57:00.480Z,987.77
2018-06-09T02:58:53.350Z,987.72
2018-06-09T02:59:53.236Z,987.72
2018-06-09T03:01:47.021Z,987.71
2018-06-09T03:02:46.894Z,987.73
2018-06-09T03:04:39.830Z,987.70
2018-06-09T03:05:39.650Z,987.65
2018-06-09T03:07:32.503Z,987.71
2018-06-09T03:08:32.408Z,987.70
2018-06-09T03:10:25.262Z,987.71
2018-06-09T03:11:25.140Z,987.70
2018-06-09T03:13:17.999Z,987.74
2018-06-09T03:14:17.888Z,987.71
2018-06-09T03:16:10.678Z,987.72
2018-06-09T03:17:10.541Z,987.73
2018-06-09T03:19:03.377Z,987.78
2018-06-09T03:20:03.299Z,987.77
2018-06-09T03:21:56.069Z,987.81
2018-06-09T03:22:55.938Z,987.80
2018-06-09T03:24:48.775Z,987.78
2018-06-09T03:25:48.691Z,987.80
2018-06-09T03:27:41.480Z,987.77
2018-06-09T03:28:41.358Z,987.78
2018-06-09T03:30:34.176Z,987.82
2018-06-09T03:31:34.076Z,987.79
2018-06-09T03:33:26.870Z,987.78
2018-06-09T03:34:26.747Z,987.76
2018-06-09T03:36:19.591Z,987.77
2018-06-09T03:37:19.492Z,987.78
2018-06-09T03:39:12.347Z,987.76
2018-06-09T03:40:12.250Z,987.78
2018-06-09T03:42:05.015Z,987.75
2018-06-09T03:43:04.905Z,987.77
2018-06-09T03:44:57.727Z,987.80
2018-06-09T03:45:57.639Z,987.76
2018-06-09T03:47:50.380Z,987.81
2018-06-09T03:48:50.327Z,987.82
2018-06-09T03:50:43.147Z,987.77
2018-06-09T03:51:43.069Z,987.77
2018-06-09T03:53:35.777Z,987.79
2018-06-09T03:54:35.690Z,987.76
2018-06-09T03:56:29.495Z,987.83
2018-06-09T03:57:29.353Z,987.83
2018-06-09T03:59:22.185Z,987.84
2018-06-09T04:00:22.090Z,987.83
2018-06-09T04:02:14.973Z,987.83
2018-06-09T04:03:14.844Z,987.84
2018-06-09T04:05:07.708Z,987.85
2018-06-09T04:06:07.618Z,987.84
2018-06-09T04:08:00.379Z,987.89
2018-06-09T04:09:00.243Z,987.88
2018-06-09T04:10:53.077Z,987.92
2018-06-09T04:11:52.985Z,987.90
2018-06-09T04:13:45.845Z,987.90
2018-06-09T04:14:45.761Z,987.93
2018-06-09T04:16:38.578Z,987.97
2018-06-09T04:17:38.495Z,987.97
2018-06-09T04:19:31.248Z,987.96
2018-06-09T04:20:31.152Z,987.94
2018-06-09T04:22:24.488Z,987.98
2018-06-09T04:23:23.875Z,987.99
2018-06-09T04:25:16.749Z,987.96
2018-06-09T04:26:16.639Z,987.91
2018-06-09T04:28:09.377Z,987.95
2018-06-09T04:29:09.286Z,987.92
2018-06-09T04:31:02.161Z,987.89
2018-06-09T04:32:02.076Z,987.86
2018-06-09T04:33:55.406Z,987.87
2018-06-09T04:34:54.681Z,987.89
2018-06-09T04:36:47.552Z,987.92
2018-06-09T04:37:47.428Z,987.93
2018-06-09T04:39:40.267Z,987.93
2018-06-09T04:40:40.183Z,987.95
2018-06-09T04:42:33.042Z,987.99
2018-06-09T04:43:32.921Z,988.00
2018-06-09T04:45:26.297Z,988.00
2018-06-09T04:46:26.199Z,987.99
2018-06-09T04:48:19.070Z,988.02
2018-06-09T04:49:18.940Z,988.05
2018-06-09T04:51:11.781Z,988.05
2018-06-09T04:52:11.697Z,988.05
2018-06-09T04:54:04.541Z,988.04
2018-06-09T04:55:04.446Z,988.02
2018-06-09T04:56:57.298Z,988.02
2018-06-09T04:57:57.183Z,988.00
2018-06-09T04:59:50.611Z,988.03
2018-06-09T05:00:49.931Z,988.07
2018-06-09T05:02:42.771Z,988.04
2018-06-09T05:03:42.691Z,988.02
2018-06-09T05:05:35.548Z,988.01
2018-06-09T05:06:35.433Z,988.05
2018-06-09T05:08:28.284Z,987.98
2018-06-09T05:09:28.204Z,988.00
2018-06-09T05:11:21.558Z,987.99
2018-06-09T05:12:20.942Z,988.00
2018-06-09T05:14:13.770Z,987.97
2018-06-09T05:15:13.682Z,987.98
2018-06-09T05:17:06.547Z,987.98
2018-06-09T05:18:06.438Z,988.05
2018-06-09T05:19:59.319Z,987.99
2018-06-09T05:20:59.184Z,987.98
2018-06-09T05:22:52.456Z,987.95
2018-06-09T05:23:52.351Z,987.92
2018-06-09T05:25:45.200Z,987.88
2018-06-09T05:26:45.090Z,987.87
2018-06-09T05:28:37.952Z,987.87
2018-06-09T05:29:37.855Z,987.85
2018-06-09T05:31:30.690Z,987.86
2018-06-09T05:32:30.590Z,987.86
2018-06-09T05:34:23.509Z,987.83
2018-06-09T05:35:23.339Z,987.82
2018-06-09T05:37:16.694Z,987.85
2018-06-09T05:38:16.087Z,987.84
2018-06-09T05:40:08.961Z,987.80
2018-06-09T05:41:08.848Z,987.78
2018-06-09T05:43:01.685Z,987.71
2018-06-09T05:44:01.588Z,987.67
2018-06-09T05:45:54.461Z,987.66
2018-06-09T05:46:54.342Z,987.66
2018-06-09T05:48:47.228Z,987.68
2018-06-09T05:49:47.087Z,987.71
2018-06-09T05:51:39.944Z,987.74
2018-06-09T05:52:39.837Z,987.72
2018-06-09T05:54:32.748Z,987.72
2018-06-09T05:55:32.619Z,987.75
2018-06-09T05:57:25.446Z,987.77
2018-06-09T05:58:25.340Z,987.76
2018-06-09T06:00:18.247Z,987.81
2018-06-09T06:01:18.090Z,987.81
2018-06-09T06:03:11.439Z,987.80
2018-06-09T06:04:11.360Z,987.81
2018-06-09T06:06:04.208Z,987.78
2018-06-09T06:07:04.109Z,987.83
2018-06-09T06:08:56.959Z,987.82
2018-06-09T06:09:56.846Z,987.85
2018-06-09T06:11:49.691Z,987.86
2018-06-09T06:12:49.601Z,987.84
2018-06-09T06:14:42.507Z,987.86
2018-06-09T06:15:42.346Z,987.86
2018-06-09T06:17:35.201Z,987.89
2018-06-09T06:18:35.099Z,987.91
2018-06-09T06:20:27.950Z,987.93
2018-06-09T06:21:27.861Z,988.00
2018-06-09T06:23:20.701Z,987.97
2018-06-09T06:24:20.596Z,987.98
2018-06-09T06:26:13.473Z,988.01
2018-06-09T06:27:13.348Z,988.00
2018-06-09T06:29:06.214Z,988.05
2018-06-09T06:30:06.108Z,988.04
2018-06-09T06:31:59.015Z,988.02
2018-06-09T06:32:58.850Z,988.04
2018-06-09T06:34:51.713Z,988.02
2018-06-09T06:35:51.597Z,987.96
2018-06-09T06:37:44.460Z,988.01
2018-06-09T06:38:44.353Z,988.02
2018-06-09T06:40:37.204Z,988.04
2018-06-09T06:41:37.098Z,988.07
2018-06-09T06:43:29.935Z,988.09
2018-06-09T06:44:29.856Z,988.06
2018-06-09T06:46:22.709Z,988.06
2018-06-09T06:47:22.614Z,988.06
2018-06-09T06:49:15.447Z,988.09
2018-06-09T06:50:15.361Z,988.10
2018-06-09T06:52:08.185Z,988.08
2018-06-09T06:53:08.130Z,988.09
2018-06-09T06:55:00.946Z,988.11
2018-06-09T06:56:00.874Z,988.09
2018-06-09T06:57:53.678Z,988.18
2018-06-09T06:58:53.602Z,988.21
2018-06-09T07:00:46.446Z,988.19
2018-06-09T07:01:46.351Z,988.19
2018-06-09T07:03:39.183Z,988.23
2018-06-09T07:04:39.087Z,988.22
2018-06-09T07:06:31.943Z,988.19
2018-06-09T07:07:31.852Z,988.15
2018-06-09T07:09:24.739Z,988.18
2018-06-09T07:10:24.608Z,988.14
2018-06-09T07:12:17.450Z,988.18
2018-06-09T07:13:17.350Z,988.17
2018-06-09T07:15:10.203Z,988.16
2018-06-09T07:16:10.108Z,988.17
2018-06-09T07:18:02.945Z,988.10
2018-06-09T07:19:02.836Z,988.12
2018-06-09T07:20:55.706Z,988.09
2018-06-09T07:21:55.594Z,988.11
2018-06-09T07:23:48.427Z,988.14
2018-06-09T07:24:48.339Z,988.13
2018-06-09T07:26:41.214Z,988.14
2018-06-09T07:27:41.091Z,988.12
2018-06-09T07:29:33.919Z,988.14
2018-06-09T07:30:33.836Z,988.15
2018-06-09T07:32:27.237Z,988.14
2018-06-09T07:33:27.120Z,988.09
2018-06-09T07:35:19.940Z,988.15
2018-06-09T07:36:19.863Z,988.14
2018-06-09T07:38:12.715Z,988.19
2018-06-09T07:39:12.627Z,988.17
2018-06-09T07:41:05.461Z,988.19
2018-06-09T07:42:05.384Z,988.21
2018-06-09T07:43:58.251Z,988.20
2018-06-09T07:44:58.126Z,988.17
2018-06-09T07:46:50.994Z,988.17
2018-06-09T07:47:50.906Z,988.15
2018-06-09T07:49:43.723Z,988.12
2018-06-09T07:50:43.628Z,988.12
2018-06-09T07:52:36.430Z,988.12
2018-06-09T07:53:36.389Z,988.13
2018-06-09T07:55:29.230Z,988.13
2018-06-09T07:56:29.094Z,988.11
2018-06-09T07:58:21.940Z,988.07
2018-06-09T07:59:21.853Z,988.05
2018-06-09T08:01:14.710Z,988.10
2018-06-09T08:02:14.612Z,988.10
2018-06-09T08:04:07.477Z,988.11
2018-06-09T08:05:07.342Z,988.12
2018-06-09T08:07:00.247Z,988.15
2018-06-09T08:08:00.109Z,988.11
2018-06-09T08:09:52.954Z,988.19
2018-06-09T08:10:52.853Z,988.15
2018-06-09T08:12:45.712Z,988.18
2018-06-09T08:13:45.602Z,988.18
2018-06-09T08:15:38.438Z,988.21
2018-06-09T08:16:38.352Z,988.23
2018-06-09T08:18:31.217Z,988.27
2018-06-09T08:19:31.139Z,988.22
2018-06-09T08:21:23.930Z,988.14
2018-06-09T08:22:23.888Z,988.16
2018-06-09T08:24:17.224Z,988.20
2018-06-09T08:25:17.008Z,988.17
2018-06-09T08:27:09.842Z,988.21
2018-06-09T08:28:09.759Z,988.22
2018-06-09T08:30:02.624Z,988.24
2018-06-09T08:31:02.507Z,988.26
2018-06-09T08:32:55.368Z,988.24
2018-06-09T08:33:55.249Z,988.27
2018-06-09T08:35:48.139Z,988.21
2018-06-09T08:36:48.009Z,988.25
2018-06-09T08:38:41.264Z,988.22
2018-06-09T08:39:41.179Z,988.22
2018-06-09T08:41:34.066Z,988.23
2018-06-09T08:42:33.921Z,988.25
2018-06-09T08:44:26.751Z,988.29
2018-06-09T08:45:26.666Z,988.27
2018-06-09T08:47:19.530Z,988.28
2018-06-09T08:48:19.413Z,988.32
2018-06-09T08:50:12.257Z,988.37
2018-06-09T08:51:12.206Z,988.36
2018-06-09T08:53:05.540Z,988.39
2018-06-09T08:54:05.422Z,988.34
2018-06-09T08:55:58.785Z,988.40
2018-06-09T08:56:58.263Z,988.36
2018-06-09T08:58:51.027Z,988.39
2018-06-09T08:59:50.962Z,988.40
2018-06-09T09:01:43.819Z,988.41
2018-06-09T09:02:43.684Z,988.34
2018-06-09T09:04:36.534Z,988.35
2018-06-09T09:05:36.460Z,988.33
2018-06-09T09:07:29.285Z,988.32
2018-06-09T09:08:29.185Z,988.31
2018-06-09T09:10:22.037Z,988.36
2018-06-09T09:11:21.951Z,988.28
2018-06-09T09:13:14.754Z,988.34
2018-06-09T09:14:14.674Z,988.34
2018-06-09T09:16:07.728Z,988.33
2018-06-09T09:17:07.443Z,988.36
2018-06-09T09:19:00.271Z,988.33
2018-06-09T09:20:00.179Z,988.31
2018-06-09T09:21:53.038Z,988.34
2018-06-09T09:22:53.467Z,988.34
2018-06-09T09:24:45.762Z,988.28
2018-06-09T09:25:45.674Z,988.21
2018-06-09T09:27:38.547Z,988.20
2018-06-09T09:28:38.419Z,988.19
2018-06-09T09:30:31.256Z,988.16
2018-06-09T09:31:31.197Z,988.19
2018-06-09T09:33:24.272Z,988.13
2018-06-09T09:34:24.019Z,988.22
2018-06-09T09:36:16.890Z,988.20
2018-06-09T09:37:16.792Z,988.22
2018-06-09T09:39:09.635Z,988.18
2018-06-09T09:40:09.519Z,988.20
2018-06-09T09:42:02.376Z,988.22
2018-06-09T09:43:02.283Z,988.22
2018-06-09T09:45:58.237Z,988.26
2018-06-09T09:47:52.075Z,988.21
2018-06-09T09:48:51.987Z,988.21
2018-06-09T09:50:44.834Z,988.21
2018-06-09T09:51:44.856Z,988.21
2018-06-09T09:53:37.579Z,988.16
2018-06-09T09:54:37.481Z,988.21
2018-06-09T09:56:30.419Z,988.18
2018-06-09T09:57:30.315Z,988.15
2018-06-09T09:59:23.565Z,988.18
2018-06-09T10:00:23.508Z,988.22
2018-06-09T10:02:16.345Z,988.23
2018-06-09T10:03:16.246Z,988.24
2018-06-09T10:05:09.170Z,988.25
2018-06-09T10:06:09.073Z,988.26
2018-06-09T10:08:01.955Z,988.25
2018-06-09T10:09:01.839Z,988.27
2018-06-09T10:10:54.689Z,988.25
2018-06-09T10:11:54.606Z,988.23
2018-06-09T10:13:48.092Z,988.22
2018-06-09T10:14:47.332Z,988.20
2018-06-09T10:16:40.696Z,988.18
2018-06-09T10:17:40.637Z,988.20
2018-06-09T10:19:33.428Z,988.18
2018-06-09T10:20:33.345Z,988.21
2018-06-09T10:22:26.220Z,988.24
2018-06-09T10:23:26.107Z,988.21
2018-06-09T10:25:18.944Z,988.24
2018-06-09T10:26:18.852Z,988.23
2018-06-09T10:28:11.710Z,988.29
2018-06-09T10:29:11.592Z,988.29
2018-06-09T10:31:04.443Z,988.30
2018-06-09T10:32:04.342Z,988.28
2018-06-09T10:33:57.215Z,988.37
2018-06-09T10:34:57.106Z,988.35
2018-06-09T10:36:49.935Z,988.35
2018-06-09T10:37:49.856Z,988.38
2018-06-09T10:39:42.711Z,988.45
2018-06-09T10:40:42.598Z,988.43
2018-06-09T10:42:35.445Z,988.45
2018-06-09T10:43:35.336Z,988.44
2018-06-09T10:45:28.233Z,988.47
2018-06-09T10:46:28.109Z,988.48
2018-06-09T10:48:35.989Z,988.48
2018-06-09T10:50:38.147Z,988.51
2018-06-09T10:51:38.069Z,988.49
2018-06-09T10:53:30.938Z,988.54
2018-06-09T10:54:30.818Z,988.51
2018-06-09T10:56:23.696Z,988.52
2018-06-09T10:57:23.604Z,988.54
2018-06-09T10:59:16.417Z,988.56
2018-06-09T11:00:16.305Z,988.54
2018-06-09T11:02:09.173Z,988.56
2018-06-09T11:03:09.054Z,988.55
2018-06-09T11:05:01.882Z,988.54
2018-06-09T11:06:01.805Z,988.54
2018-06-09T11:07:54.662Z,988.51
2018-06-09T11:08:54.550Z,988.49
2018-06-09T11:10:47.404Z,988.47
2018-06-09T11:11:47.315Z,988.46
2018-06-09T11:13:40.159Z,988.38
2018-06-09T11:14:40.057Z,988.38
2018-06-09T11:16:32.892Z,988.34
2018-06-09T11:17:32.818Z,988.30
2018-06-09T11:19:25.664Z,988.32
2018-06-09T11:20:25.547Z,988.33
2018-06-09T11:22:18.400Z,988.35
2018-06-09T11:23:18.298Z,988.38
2018-06-09T11:25:11.148Z,988.38
2018-06-09T11:26:11.057Z,988.37
2018-06-09T11:28:04.409Z,988.37
2018-06-09T11:29:03.797Z,988.37
2018-06-09T11:30:57.069Z,988.35
2018-06-09T11:31:56.968Z,988.37
2018-06-09T11:33:49.819Z,988.34
2018-06-09T11:34:49.717Z,988.32
2018-06-09T11:36:43.048Z,988.34
2018-06-09T11:37:42.971Z,988.34
2018-06-09T11:39:35.849Z,988.34
2018-06-09T11:40:35.716Z,988.37
2018-06-09T11:42:28.565Z,988.32
2018-06-09T11:43:28.461Z,988.33
2018-06-09T11:45:21.312Z,988.29
2018-06-09T11:46:21.217Z,988.28
2018-06-09T11:48:14.463Z,988.32
2018-06-09T11:49:14.376Z,988.29
2018-06-09T11:51:07.225Z,988.26
2018-06-09T11:52:07.129Z,988.26
2018-06-09T11:53:59.990Z,988.28
2018-06-09T11:54:59.898Z,988.23
2018-06-09T11:56:52.763Z,988.30
2018-06-09T11:57:52.625Z,988.27
2018-06-09T11:59:45.504Z,988.26
2018-06-09T12:00:45.379Z,988.21
2018-06-09T12:02:38.230Z,988.17
2018-06-09T12:03:38.125Z,988.23
2018-06-09T12:05:30.999Z,988.20
2018-06-09T12:06:30.870Z,988.18
2018-06-09T12:08:23.708Z,988.16
2018-06-09T12:09:23.663Z,988.19
2018-06-09T12:11:16.551Z,988.08
2018-06-09T12:12:16.373Z,988.07
2018-06-09T12:14:09.206Z,988.06
2018-06-09T12:15:09.125Z,988.03
2018-06-09T12:17:01.970Z,987.98
2018-06-09T12:18:01.878Z,987.97
2018-06-09T12:19:54.702Z,987.97
2018-06-09T12:20:54.647Z,987.94
2018-06-09T12:22:47.469Z,987.95
2018-06-09T12:23:47.383Z,987.96
2018-06-09T12:25:40.204Z,987.91
2018-06-09T12:26:40.123Z,987.90
2018-06-09T12:28:32.979Z,987.84
2018-06-09T12:29:32.875Z,987.83
2018-06-09T12:31:25.723Z,987.83
2018-06-09T12:32:25.637Z,987.81
2018-06-09T12:34:19.003Z,987.81
2018-06-09T12:35:18.377Z,987.78
2018-06-09T12:37:11.233Z,987.75
2018-06-09T12:38:11.120Z,987.78
2018-06-09T12:40:03.965Z,987.75
2018-06-09T12:41:03.884Z,987.73
2018-06-09T12:42:56.715Z,987.69
2018-06-09T12:43:56.617Z,987.69
2018-06-09T12:45:49.520Z,987.75
2018-06-09T12:46:49.379Z,987.73
2018-06-09T12:48:42.249Z,987.74
2018-06-09T12:49:42.116Z,987.73
2018-06-09T12:51:35.038Z,987.73
2018-06-09T12:52:34.869Z,987.73
2018-06-09T12:54:27.727Z,987.68
2018-06-09T12:55:27.617Z,987.67
2018-06-09T12:57:20.460Z,987.63
2018-06-09T12:58:20.378Z,987.61
2018-06-09T13:00:13.232Z,987.61
2018-06-09T13:01:13.120Z,987.56
2018-06-09T13:03:06.009Z,987.61
2018-06-09T13:04:05.866Z,987.64
2018-06-09T13:05:59.758Z,987.60
2018-06-09T13:06:59.655Z,987.63
2018-06-09T13:08:53.001Z,987.64
2018-06-09T13:09:52.903Z,987.63
2018-06-09T13:11:51.524Z,987.62
2018-06-09T13:12:49.378Z,987.63
2018-06-09T13:14:42.750Z,987.62
2018-06-09T13:15:42.608Z,987.61
2018-06-09T13:17:35.434Z,987.66
2018-06-09T13:18:35.350Z,987.63
2018-06-09T13:20:28.346Z,987.65
2018-06-09T13:21:28.097Z,987.66
2018-06-09T13:23:20.937Z,987.63
2018-06-09T13:24:20.845Z,987.61
2018-06-09T13:26:13.710Z,987.53
2018-06-09T13:27:13.607Z,987.59
2018-06-09T13:29:06.430Z,987.57
2018-06-09T13:30:06.360Z,987.61
2018-06-09T13:31:59.243Z,987.60
2018-06-09T13:32:59.103Z,987.57
2018-06-09T13:34:51.950Z,987.58
2018-06-09T13:35:51.886Z,987.57
2018-06-09T13:37:44.692Z,987.54
2018-06-09T13:38:44.641Z,987.52
2018-06-09T13:40:37.443Z,987.47
2018-06-09T13:41:37.366Z,987.51
2018-06-09T13:43:30.251Z,987.44
2018-06-09T13:44:30.091Z,987.45
2018-06-09T13:46:23.444Z,987.42
2018-06-09T13:47:23.348Z,987.42
2018-06-09T13:49:16.184Z,987.35
2018-06-09T13:50:16.119Z,987.34
2018-06-09T13:52:09.470Z,987.31
2018-06-09T13:53:09.371Z,987.27
2018-06-09T13:55:02.242Z,987.25
2018-06-09T13:56:02.115Z,987.29
2018-06-09T13:57:54.961Z,987.27
2018-06-09T13:58:54.880Z,987.29
2018-06-09T14:00:47.720Z,987.26
2018-06-09T14:01:47.620Z,987.28
2018-06-09T14:03:40.467Z,987.28
2018-06-09T14:04:40.361Z,987.30
2018-06-09T14:06:33.190Z,987.27
2018-06-09T14:07:33.119Z,987.26
2018-06-09T14:09:25.987Z,987.26
2018-06-09T14:10:25.868Z,987.24
2018-06-09T14:12:18.715Z,987.20
2018-06-09T14:13:18.659Z,987.17
2018-06-09T14:15:11.490Z,987.11
2018-06-09T14:16:11.361Z,987.12
2018-06-09T14:18:04.252Z,987.14
2018-06-09T14:19:04.118Z,987.15
2018-06-09T14:20:57.480Z,987.12
2018-06-09T14:21:57.410Z,987.12
2018-06-09T14:23:50.251Z,987.14
2018-06-09T14:24:50.123Z,987.12
2018-06-09T14:26:42.986Z,987.10
2018-06-09T14:27:42.873Z,987.12
2018-06-09T14:29:35.727Z,987.07
2018-06-09T14:30:35.631Z,987.09
2018-06-09T14:32:28.459Z,987.08
2018-06-09T14:33:28.382Z,987.08
2018-06-09T14:35:21.216Z,987.06
2018-06-09T14:36:21.125Z,987.05
2018-06-09T14:38:13.956Z,987.05
2018-06-09T14:39:13.879Z,987.04
2018-06-09T14:41:06.731Z,987.03
2018-06-09T14:42:06.622Z,987.04
2018-06-09T14:43:59.961Z,987.06
2018-06-09T14:44:59.885Z,987.06
2018-06-09T14:46:52.724Z,987.04
2018-06-09T14:47:52.652Z,987.06
2018-06-09T14:49:45.476Z,987.07
2018-06-09T14:50:45.408Z,987.09
2018-06-09T14:52:38.232Z,987.11
2018-06-09T14:53:38.130Z,987.09
2018-06-09T14:55:30.976Z,987.09
2018-06-09T14:56:30.900Z,987.08
2018-06-09T14:58:23.710Z,987.07
2018-06-09T14:59:23.638Z,987.07
2018-06-09T15:01:16.478Z,987.02
2018-06-09T15:02:16.376Z,987.03
2018-06-09T15:04:09.274Z,987.01
2018-06-09T15:05:09.130Z,986.97
2018-06-09T15:07:01.975Z,986.93
2018-06-09T15:08:01.920Z,986.98
2018-06-09T15:09:54.755Z,986.98
2018-06-09T15:10:54.632Z,986.98
2018-06-09T15:12:47.465Z,986.95
2018-06-09T15:13:47.391Z,986.95
2018-06-09T15:15:40.249Z,986.93
2018-06-09T15:16:40.145Z,986.92
2018-06-09T15:18:33.008Z,986.89
2018-06-09T15:19:32.897Z,986.90
2018-06-09T15:21:25.736Z,986.90
2018-06-09T15:22:25.640Z,986.86
2018-06-09T15:24:18.452Z,986.84
2018-06-09T15:25:18.389Z,986.86
2018-06-09T15:27:11.259Z,986.90
2018-06-09T15:28:11.161Z,986.89
2018-06-09T15:30:03.985Z,986.94
2018-06-09T15:31:03.880Z,986.92
2018-06-09T15:32:56.711Z,986.94
2018-06-09T15:33:56.639Z,986.96
2018-06-09T15:35:49.543Z,986.91
2018-06-09T15:36:49.509Z,986.89
2018-06-09T15:38:42.947Z,986.87
2018-06-09T15:39:42.347Z,986.88
2018-06-09T15:41:34.972Z,986.90
2018-06-09T15:42:34.871Z,986.86
2018-06-09T15:44:28.302Z,986.87
2018-06-09T15:45:28.213Z,986.81
2018-06-09T15:47:20.976Z,986.82
2018-06-09T15:48:20.889Z,986.77
2018-06-09T15:50:13.780Z,986.86
2018-06-09T15:51:13.642Z,986.84
2018-06-09T15:53:06.464Z,986.84
2018-06-09T15:54:06.386Z,986.83
2018-06-09T15:55:59.758Z,986.79
2018-06-09T15:56:59.657Z,986.77
2018-06-09T15:58:52.473Z,986.77
2018-06-09T15:59:52.399Z,986.77
2018-06-09T16:01:45.233Z,986.77
2018-06-09T16:02:45.151Z,986.79
2018-06-09T16:04:37.981Z,986.81
2018-06-09T16:05:37.920Z,986.85
2018-06-09T16:07:30.733Z,986.91
2018-06-09T16:08:30.651Z,986.90
2018-06-09T16:10:23.498Z,986.94
2018-06-09T16:11:23.418Z,986.92
2018-06-09T16:13:16.255Z,986.95
2018-06-09T16:14:16.161Z,986.96
2018-06-09T16:16:08.976Z,986.90
2018-06-09T16:17:08.920Z,986.99
2018-06-09T16:19:01.745Z,986.97
2018-06-09T16:20:01.660Z,987.01
2018-06-09T16:21:54.488Z,987.07
2018-06-09T16:22:54.407Z,987.07
2018-06-09T16:24:47.222Z,987.08
2018-06-09T16:25:47.159Z,987.09
2018-06-09T16:27:39.991Z,987.13
2018-06-09T16:28:39.902Z,987.11
2018-06-09T16:30:32.724Z,987.17
2018-06-09T16:31:32.638Z,987.21
2018-06-09T16:33:26.003Z,987.27
2018-06-09T16:34:25.901Z,987.27
2018-06-09T16:36:18.765Z,987.24
2018-06-09T16:37:18.653Z,987.25
2018-06-09T16:39:11.494Z,987.21
2018-06-09T16:40:11.401Z,987.20
2018-06-09T16:42:04.247Z,987.24
2018-06-09T16:43:04.167Z,987.27
2018-06-09T16:44:56.998Z,987.30
2018-06-09T16:45:56.907Z,987.30
2018-06-09T16:47:49.755Z,987.32
2018-06-09T16:48:49.650Z,987.31
2018-06-09T16:50:42.477Z,987.28
2018-06-09T16:51:42.397Z,987.25
2018-06-09T16:53:35.242Z,987.30
2018-06-09T16:54:35.199Z,987.29
2018-06-09T16:56:28.030Z,987.28
2018-06-09T16:57:27.920Z,987.33
2018-06-09T16:59:20.764Z,987.30
2018-06-09T17:00:20.657Z,987.34
2018-06-09T17:02:14.017Z,987.35
2018-06-09T17:03:13.933Z,987.40
2018-06-09T17:05:06.752Z,987.43
2018-06-09T17:06:06.671Z,987.39
2018-06-09T17:07:59.497Z,987.45
2018-06-09T17:08:59.412Z,987.44
2018-06-09T17:10:52.287Z,987.46
2018-06-09T17:11:52.152Z,987.47
2018-06-09T17:13:45.020Z,987.48
2018-06-09T17:14:44.908Z,987.50
2018-06-09T17:16:37.750Z,987.46
2018-06-09T17:17:37.663Z,987.45
2018-06-09T17:19:31.016Z,987.44
2018-06-09T17:20:30.912Z,987.43
2018-06-09T17:22:23.763Z,987.42
2018-06-09T17:23:23.665Z,987.42
2018-06-09T17:25:16.505Z,987.41
2018-06-09T17:26:16.415Z,987.38
2018-06-09T17:28:09.264Z,987.36
2018-06-09T17:29:09.207Z,987.31
2018-06-09T17:31:01.995Z,987.33
2018-06-09T17:32:01.916Z,987.30
2018-06-09T17:33:54.787Z,987.30
2018-06-09T17:34:54.683Z,987.28
2018-06-09T17:36:47.527Z,987.24
2018-06-09T17:37:47.426Z,987.25
2018-06-09T17:39:40.767Z,987.31
2018-06-09T17:40:40.679Z,987.29
2018-06-09T17:42:33.552Z,987.37
2018-06-09T17:43:33.430Z,987.45
2018-06-09T17:45:27.200Z,987.46
2018-06-09T17:46:27.099Z,987.45
2018-06-09T17:48:19.965Z,987.38
2018-06-09T17:49:19.860Z,987.40
2018-06-09T17:51:12.685Z,987.40
2018-06-09T17:52:12.595Z,987.40
2018-06-09T17:54:05.756Z,987.45
2018-06-09T17:55:05.902Z,987.40
2018-06-09T17:56:58.276Z,987.39
2018-06-09T17:57:58.097Z,987.36
2018-06-09T17:59:50.945Z,987.30